sensor_id;sensor_type;location;lat;lon;timestamp;temperature;humidity
37886;DHT22;23726;52.520;13.434;2022-12-18T00:01:03;20.20;45.80
37886;DHT22;23726;52.520;13.434;2022-12-18T00:03:36;20.20;45.80
37886;DHT22;23726;52.520;13.434;2022-12-18T00:06:01;20.20;45.80
37886;DHT22;23726;52.520;13.434;2022-12-18T00:08:27;20.20;45.80
37886;DHT22;23726;52.520;13.434;2022-12-18T00:10:53;20.20;45.80
37886;DHT22;23726;52.520;13.434;2022-12-18T00:13:19;20.20;45.80
37886;DHT22;23726;52.520;13.434;2022-12-18T00:15:45;20.20;45.70
37886;DHT22;23726;52.520;13.434;2022-12-18T00:18:10;20.20;45.80
37886;DHT22;23726;52.520;13.434;2022-12-18T00:20:37;20.20;45.70
37886;DHT22;23726;52.520;13.434;2022-12-18T00:23:04;20.20;45.70
37886;DHT22;23726;52.520;13.434;2022-12-18T00:25:29;20.20;45.70
37886;DHT22;23726;52.520;13.434;2022-12-18T00:27:58;20.20;45.70
37886;DHT22;23726;52.520;13.434;2022-12-18T00:30:24;20.20;45.70
37886;DHT22;23726;52.520;13.434;2022-12-18T00:32:49;20.20;45.60
37886;DHT22;23726;52.520;13.434;2022-12-18T00:35:15;20.20;45.60
37886;DHT22;23726;52.520;13.434;2022-12-18T00:37:40;20.20;45.60
37886;DHT22;23726;52.520;13.434;2022-12-18T00:40:06;20.20;45.60
37886;DHT22;23726;52.520;13.434;2022-12-18T00:42:32;20.20;45.60
37886;DHT22;23726;52.520;13.434;2022-12-18T00:45:17;20.20;45.60
37886;DHT22;23726;52.520;13.434;2022-12-18T00:47:44;20.20;45.60
37886;DHT22;23726;52.520;13.434;2022-12-18T00:50:09;20.20;45.60
37886;DHT22;23726;52.520;13.434;2022-12-18T00:52:36;20.20;45.60
37886;DHT22;23726;52.520;13.434;2022-12-18T00:55:05;20.20;45.60
37886;DHT22;23726;52.520;13.434;2022-12-18T00:57:31;20.20;45.50
37886;DHT22;23726;52.520;13.434;2022-12-18T00:59:56;20.20;45.60
37886;DHT22;23726;52.520;13.434;2022-12-18T01:02:22;20.20;45.50
37886;DHT22;23726;52.520;13.434;2022-12-18T01:04:48;20.20;46.00
37886;DHT22;23726;52.520;13.434;2022-12-18T01:07:14;20.20;45.50
37886;DHT22;23726;52.520;13.434;2022-12-18T01:09:40;20.20;45.50
37886;DHT22;23726;52.520;13.434;2022-12-18T01:12:06;20.20;45.50
37886;DHT22;23726;52.520;13.434;2022-12-18T01:14:31;20.20;45.50
37886;DHT22;23726;52.520;13.434;2022-12-18T01:16:58;20.20;45.50
37886;DHT22;23726;52.520;13.434;2022-12-18T01:19:24;20.20;45.50
37886;DHT22;23726;52.520;13.434;2022-12-18T01:21:49;20.20;45.40
37886;DHT22;23726;52.520;13.434;2022-12-18T01:24:17;20.20;45.50
37886;DHT22;23726;52.520;13.434;2022-12-18T01:26:42;20.20;45.50
37886;DHT22;23726;52.520;13.434;2022-12-18T01:29:08;20.20;45.40
37886;DHT22;23726;52.520;13.434;2022-12-18T01:31:33;20.10;45.40
37886;DHT22;23726;52.520;13.434;2022-12-18T01:34:03;20.20;45.40
37886;DHT22;23726;52.520;13.434;2022-12-18T01:36:32;20.20;45.40
37886;DHT22;23726;52.520;13.434;2022-12-18T01:39:10;20.20;45.40
37886;DHT22;23726;52.520;13.434;2022-12-18T01:41:36;20.10;45.40
37886;DHT22;23726;52.520;13.434;2022-12-18T01:49:45;20.10;45.40
37886;DHT22;23726;52.520;13.434;2022-12-18T01:52:11;20.10;45.40
37886;DHT22;23726;52.520;13.434;2022-12-18T01:54:37;20.10;45.30
37886;DHT22;23726;52.520;13.434;2022-12-18T01:57:03;20.10;45.30
37886;DHT22;23726;52.520;13.434;2022-12-18T01:59:29;20.10;45.30
37886;DHT22;23726;52.520;13.434;2022-12-18T02:01:56;20.20;45.30
37886;DHT22;23726;52.520;13.434;2022-12-18T02:04:26;20.10;45.30
37886;DHT22;23726;52.520;13.434;2022-12-18T02:09:34;20.10;45.80
37886;DHT22;23726;52.520;13.434;2022-12-18T02:12:05;20.10;45.30
37886;DHT22;23726;52.520;13.434;2022-12-18T02:14:40;20.10;45.30
37886;DHT22;23726;52.520;13.434;2022-12-18T02:17:20;20.20;45.30
37886;DHT22;23726;52.520;13.434;2022-12-18T02:20:18;20.10;45.20
37886;DHT22;23726;52.520;13.434;2022-12-18T02:28:42;20.10;45.30
37886;DHT22;23726;52.520;13.434;2022-12-18T02:31:14;20.10;45.30
37886;DHT22;23726;52.520;13.434;2022-12-18T02:33:42;20.10;45.30
37886;DHT22;23726;52.520;13.434;2022-12-18T02:36:09;20.10;45.20
37886;DHT22;23726;52.520;13.434;2022-12-18T02:38:36;20.10;45.20
37886;DHT22;23726;52.520;13.434;2022-12-18T02:41:03;20.10;45.20
37886;DHT22;23726;52.520;13.434;2022-12-18T02:43:29;20.10;45.20
37886;DHT22;23726;52.520;13.434;2022-12-18T02:46:00;20.10;45.20
37886;DHT22;23726;52.520;13.434;2022-12-18T02:48:46;20.10;45.20
37886;DHT22;23726;52.520;13.434;2022-12-18T02:51:29;20.20;45.20
37886;DHT22;23726;52.520;13.434;2022-12-18T02:54:04;20.10;45.20
37886;DHT22;23726;52.520;13.434;2022-12-18T02:56:43;20.10;45.60
37886;DHT22;23726;52.520;13.434;2022-12-18T02:59:19;20.10;45.20
37886;DHT22;23726;52.520;13.434;2022-12-18T03:04:29;20.10;45.20
37886;DHT22;23726;52.520;13.434;2022-12-18T03:06:59;20.10;45.20
37886;DHT22;23726;52.520;13.434;2022-12-18T03:09:35;20.10;45.30
37886;DHT22;23726;52.520;13.434;2022-12-18T03:12:21;20.10;45.30
37886;DHT22;23726;52.520;13.434;2022-12-18T03:17:24;20.10;45.30
37886;DHT22;23726;52.520;13.434;2022-12-18T03:19:55;20.20;45.40
37886;DHT22;23726;52.520;13.434;2022-12-18T03:22:23;20.10;45.30
37886;DHT22;23726;52.520;13.434;2022-12-18T03:24:51;20.10;45.40
37886;DHT22;23726;52.520;13.434;2022-12-18T03:27:20;20.20;45.60
37886;DHT22;23726;52.520;13.434;2022-12-18T03:29:53;20.10;45.30
37886;DHT22;23726;52.520;13.434;2022-12-18T03:32:31;20.10;45.40
37886;DHT22;23726;52.520;13.434;2022-12-18T03:35:00;20.20;45.40
37886;DHT22;23726;52.520;13.434;2022-12-18T03:37:28;20.10;45.40
37886;DHT22;23726;52.520;13.434;2022-12-18T03:39:54;20.20;45.50
37886;DHT22;23726;52.520;13.434;2022-12-18T03:42:30;20.20;45.50
37886;DHT22;23726;52.520;13.434;2022-12-18T03:50:14;20.20;45.50
37886;DHT22;23726;52.520;13.434;2022-12-18T03:52:51;20.20;45.50
37886;DHT22;23726;52.520;13.434;2022-12-18T03:55:19;20.10;45.50
37886;DHT22;23726;52.520;13.434;2022-12-18T03:57:48;20.10;45.50
37886;DHT22;23726;52.520;13.434;2022-12-18T04:00:16;20.10;46.00
37886;DHT22;23726;52.520;13.434;2022-12-18T04:02:50;20.20;45.60
37886;DHT22;23726;52.520;13.434;2022-12-18T04:05:18;20.20;45.60
37886;DHT22;23726;52.520;13.434;2022-12-18T04:07:46;20.10;45.60
37886;DHT22;23726;52.520;13.434;2022-12-18T04:10:14;20.20;46.10
37886;DHT22;23726;52.520;13.434;2022-12-18T04:12:44;20.20;45.60
37886;DHT22;23726;52.520;13.434;2022-12-18T04:15:11;20.10;45.50
37886;DHT22;23726;52.520;13.434;2022-12-18T04:17:39;20.20;45.60
37886;DHT22;23726;52.520;13.434;2022-12-18T04:20:05;20.20;45.70
37886;DHT22;23726;52.520;13.434;2022-12-18T04:22:31;20.20;45.60
37886;DHT22;23726;52.520;13.434;2022-12-18T04:24:56;20.20;45.60
37886;DHT22;23726;52.520;13.434;2022-12-18T04:27:22;20.20;45.60
37886;DHT22;23726;52.520;13.434;2022-12-18T04:29:48;20.20;45.60
37886;DHT22;23726;52.520;13.434;2022-12-18T04:32:13;20.20;45.60
37886;DHT22;23726;52.520;13.434;2022-12-18T04:34:39;20.20;45.60
37886;DHT22;23726;52.520;13.434;2022-12-18T04:37:06;20.20;45.60
37886;DHT22;23726;52.520;13.434;2022-12-18T04:39:31;20.20;45.60
37886;DHT22;23726;52.520;13.434;2022-12-18T04:41:58;20.20;45.60
37886;DHT22;23726;52.520;13.434;2022-12-18T04:44:24;20.20;45.60
37886;DHT22;23726;52.520;13.434;2022-12-18T04:46:50;20.20;45.70
37886;DHT22;23726;52.520;13.434;2022-12-18T04:49:17;20.20;45.60
37886;DHT22;23726;52.520;13.434;2022-12-18T04:51:44;20.20;45.70
37886;DHT22;23726;52.520;13.434;2022-12-18T04:54:10;20.20;45.70
37886;DHT22;23726;52.520;13.434;2022-12-18T04:56:36;20.20;45.70
37886;DHT22;23726;52.520;13.434;2022-12-18T04:59:03;20.20;45.70
37886;DHT22;23726;52.520;13.434;2022-12-18T05:01:28;20.20;45.70
37886;DHT22;23726;52.520;13.434;2022-12-18T05:03:54;20.20;45.70
37886;DHT22;23726;52.520;13.434;2022-12-18T05:06:20;20.20;45.80
37886;DHT22;23726;52.520;13.434;2022-12-18T05:08:45;20.20;45.80
37886;DHT22;23726;52.520;13.434;2022-12-18T05:11:13;20.20;45.80
37886;DHT22;23726;52.520;13.434;2022-12-18T05:13:41;20.20;45.90
37886;DHT22;23726;52.520;13.434;2022-12-18T05:16:07;20.20;45.80
37886;DHT22;23726;52.520;13.434;2022-12-18T05:18:33;20.20;45.80
37886;DHT22;23726;52.520;13.434;2022-12-18T05:20:58;20.20;45.80
37886;DHT22;23726;52.520;13.434;2022-12-18T05:23:24;20.20;45.70
37886;DHT22;23726;52.520;13.434;2022-12-18T05:25:52;20.20;45.80
37886;DHT22;23726;52.520;13.434;2022-12-18T05:28:18;20.20;45.80
37886;DHT22;23726;52.520;13.434;2022-12-18T05:30:49;20.20;45.90
37886;DHT22;23726;52.520;13.434;2022-12-18T05:33:16;20.20;45.90
37886;DHT22;23726;52.520;13.434;2022-12-18T05:35:42;20.20;45.80
37886;DHT22;23726;52.520;13.434;2022-12-18T05:38:08;20.20;45.80
37886;DHT22;23726;52.520;13.434;2022-12-18T05:40:33;20.20;45.80
37886;DHT22;23726;52.520;13.434;2022-12-18T05:42:59;20.20;46.40
37886;DHT22;23726;52.520;13.434;2022-12-18T05:45:25;20.20;45.90
37886;DHT22;23726;52.520;13.434;2022-12-18T05:47:51;20.20;45.90
37886;DHT22;23726;52.520;13.434;2022-12-18T05:50:18;20.20;45.90
37886;DHT22;23726;52.520;13.434;2022-12-18T05:52:43;20.20;45.90
37886;DHT22;23726;52.520;13.434;2022-12-18T05:55:09;20.20;45.90
37886;DHT22;23726;52.520;13.434;2022-12-18T05:57:35;20.20;45.90
37886;DHT22;23726;52.520;13.434;2022-12-18T06:00:00;20.30;46.00
37886;DHT22;23726;52.520;13.434;2022-12-18T06:02:26;20.20;45.90
37886;DHT22;23726;52.520;13.434;2022-12-18T06:04:51;20.20;45.90
37886;DHT22;23726;52.520;13.434;2022-12-18T06:07:17;20.20;45.90
37886;DHT22;23726;52.520;13.434;2022-12-18T06:09:43;20.20;45.90
37886;DHT22;23726;52.520;13.434;2022-12-18T06:12:10;20.20;45.90
37886;DHT22;23726;52.520;13.434;2022-12-18T06:14:35;20.30;46.00
37886;DHT22;23726;52.520;13.434;2022-12-18T06:17:01;20.20;45.90
37886;DHT22;23726;52.520;13.434;2022-12-18T06:19:28;20.20;45.90
37886;DHT22;23726;52.520;13.434;2022-12-18T06:21:54;20.20;45.90
37886;DHT22;23726;52.520;13.434;2022-12-18T06:24:19;20.30;45.90
37886;DHT22;23726;52.520;13.434;2022-12-18T06:26:45;20.20;45.90
37886;DHT22;23726;52.520;13.434;2022-12-18T06:29:11;20.30;46.00
37886;DHT22;23726;52.520;13.434;2022-12-18T06:31:37;20.20;45.90
37886;DHT22;23726;52.520;13.434;2022-12-18T06:34:04;20.20;46.40
37886;DHT22;23726;52.520;13.434;2022-12-18T06:36:30;20.20;45.90
37886;DHT22;23726;52.520;13.434;2022-12-18T06:38:56;20.20;45.90
37886;DHT22;23726;52.520;13.434;2022-12-18T06:41:22;20.20;45.90
37886;DHT22;23726;52.520;13.434;2022-12-18T06:43:48;20.20;45.90
37886;DHT22;23726;52.520;13.434;2022-12-18T06:46:15;20.30;46.00
37886;DHT22;23726;52.520;13.434;2022-12-18T06:48:41;20.20;45.90
37886;DHT22;23726;52.520;13.434;2022-12-18T06:51:07;20.20;45.90
37886;DHT22;23726;52.520;13.434;2022-12-18T06:53:33;20.30;46.00
37886;DHT22;23726;52.520;13.434;2022-12-18T06:56:06;20.20;46.00
37886;DHT22;23726;52.520;13.434;2022-12-18T06:58:32;20.20;46.00
37886;DHT22;23726;52.520;13.434;2022-12-18T07:01:03;20.20;46.00
37886;DHT22;23726;52.520;13.434;2022-12-18T07:03:30;20.20;45.90
37886;DHT22;23726;52.520;13.434;2022-12-18T07:05:57;20.20;45.90
37886;DHT22;23726;52.520;13.434;2022-12-18T07:08:23;20.20;46.10
37886;DHT22;23726;52.520;13.434;2022-12-18T07:10:48;20.20;46.10
37886;DHT22;23726;52.520;13.434;2022-12-18T07:13:17;20.20;46.00
37886;DHT22;23726;52.520;13.434;2022-12-18T07:15:43;20.20;46.00
37886;DHT22;23726;52.520;13.434;2022-12-18T07:18:09;20.20;46.10
37886;DHT22;23726;52.520;13.434;2022-12-18T07:20:36;20.20;46.00
37886;DHT22;23726;52.520;13.434;2022-12-18T07:23:03;20.30;46.00
37886;DHT22;23726;52.520;13.434;2022-12-18T07:25:34;20.20;45.90
37886;DHT22;23726;52.520;13.434;2022-12-18T07:28:00;20.20;46.40
37886;DHT22;23726;52.520;13.434;2022-12-18T07:30:28;20.20;46.50
37886;DHT22;23726;52.520;13.434;2022-12-18T07:32:53;20.20;45.90
37886;DHT22;23726;52.520;13.434;2022-12-18T07:35:19;20.20;45.90
37886;DHT22;23726;52.520;13.434;2022-12-18T07:37:44;20.20;45.90
37886;DHT22;23726;52.520;13.434;2022-12-18T07:40:11;20.20;46.00
37886;DHT22;23726;52.520;13.434;2022-12-18T07:42:36;20.20;45.90
37886;DHT22;23726;52.520;13.434;2022-12-18T07:45:03;20.20;46.00
37886;DHT22;23726;52.520;13.434;2022-12-18T07:47:29;20.30;46.00
37886;DHT22;23726;52.520;13.434;2022-12-18T07:49:54;20.30;46.00
37886;DHT22;23726;52.520;13.434;2022-12-18T07:52:20;20.30;46.00
37886;DHT22;23726;52.520;13.434;2022-12-18T07:54:47;20.30;46.00
37886;DHT22;23726;52.520;13.434;2022-12-18T07:57:15;20.30;46.00
37886;DHT22;23726;52.520;13.434;2022-12-18T07:59:41;20.30;46.00
37886;DHT22;23726;52.520;13.434;2022-12-18T08:02:07;20.30;45.90
37886;DHT22;23726;52.520;13.434;2022-12-18T08:04:34;20.30;45.90
37886;DHT22;23726;52.520;13.434;2022-12-18T08:07:00;20.30;45.80
37886;DHT22;23726;52.520;13.434;2022-12-18T08:09:27;20.30;45.90
37886;DHT22;23726;52.520;13.434;2022-12-18T08:11:57;20.30;45.90
37886;DHT22;23726;52.520;13.434;2022-12-18T08:14:23;20.30;45.90
37886;DHT22;23726;52.520;13.434;2022-12-18T08:16:49;20.30;45.90
37886;DHT22;23726;52.520;13.434;2022-12-18T08:19:16;20.30;45.90
37886;DHT22;23726;52.520;13.434;2022-12-18T08:21:41;20.30;45.90
37886;DHT22;23726;52.520;13.434;2022-12-18T08:24:09;20.30;45.90
37886;DHT22;23726;52.520;13.434;2022-12-18T08:26:35;20.30;45.90
37886;DHT22;23726;52.520;13.434;2022-12-18T08:29:01;20.30;45.90
37886;DHT22;23726;52.520;13.434;2022-12-18T08:31:29;20.30;45.90
37886;DHT22;23726;52.520;13.434;2022-12-18T08:33:56;20.30;45.80
37886;DHT22;23726;52.520;13.434;2022-12-18T08:36:22;20.30;45.80
37886;DHT22;23726;52.520;13.434;2022-12-18T08:38:49;20.30;45.80
37886;DHT22;23726;52.520;13.434;2022-12-18T08:41:16;20.30;45.80
37886;DHT22;23726;52.520;13.434;2022-12-18T08:43:42;20.30;45.80
37886;DHT22;23726;52.520;13.434;2022-12-18T08:46:30;20.30;45.80
37886;DHT22;23726;52.520;13.434;2022-12-18T08:48:58;20.30;45.80
37886;DHT22;23726;52.520;13.434;2022-12-18T08:51:25;20.30;45.90
37886;DHT22;23726;52.520;13.434;2022-12-18T08:53:51;20.30;45.80
37886;DHT22;23726;52.520;13.434;2022-12-18T08:56:17;20.30;45.90
37886;DHT22;23726;52.520;13.434;2022-12-18T08:58:43;20.30;46.00
37886;DHT22;23726;52.520;13.434;2022-12-18T09:01:10;20.30;46.00
37886;DHT22;23726;52.520;13.434;2022-12-18T09:03:36;20.30;45.90
37886;DHT22;23726;52.520;13.434;2022-12-18T09:06:02;20.30;45.90
37886;DHT22;23726;52.520;13.434;2022-12-18T09:08:28;20.30;45.90
37886;DHT22;23726;52.520;13.434;2022-12-18T09:10:54;20.30;45.90
37886;DHT22;23726;52.520;13.434;2022-12-18T09:13:22;20.30;45.90
37886;DHT22;23726;52.520;13.434;2022-12-18T09:15:52;20.30;45.90
37886;DHT22;23726;52.520;13.434;2022-12-18T09:18:20;20.30;45.80
37886;DHT22;23726;52.520;13.434;2022-12-18T09:20:47;20.30;45.90
37886;DHT22;23726;52.520;13.434;2022-12-18T09:23:13;20.30;45.90
37886;DHT22;23726;52.520;13.434;2022-12-18T09:25:39;20.30;45.90
37886;DHT22;23726;52.520;13.434;2022-12-18T09:28:10;20.30;45.90
37886;DHT22;23726;52.520;13.434;2022-12-18T09:30:40;20.30;45.80
37886;DHT22;23726;52.520;13.434;2022-12-18T09:33:06;20.30;45.80
37886;DHT22;23726;52.520;13.434;2022-12-18T09:35:32;20.30;45.80
37886;DHT22;23726;52.520;13.434;2022-12-18T09:37:58;20.30;45.80
37886;DHT22;23726;52.520;13.434;2022-12-18T09:40:25;20.30;45.80
37886;DHT22;23726;52.520;13.434;2022-12-18T09:42:59;20.30;45.80
37886;DHT22;23726;52.520;13.434;2022-12-18T09:45:25;20.30;45.80
37886;DHT22;23726;52.520;13.434;2022-12-18T09:47:52;20.30;45.80
37886;DHT22;23726;52.520;13.434;2022-12-18T09:50:32;20.30;45.80
37886;DHT22;23726;52.520;13.434;2022-12-18T09:53:04;20.30;45.80
37886;DHT22;23726;52.520;13.434;2022-12-18T09:55:37;20.30;45.80
37886;DHT22;23726;52.520;13.434;2022-12-18T09:58:20;20.30;45.90
37886;DHT22;23726;52.520;13.434;2022-12-18T10:00:54;20.30;45.90
37886;DHT22;23726;52.520;13.434;2022-12-18T10:03:20;20.30;46.50
37886;DHT22;23726;52.520;13.434;2022-12-18T10:05:55;20.30;45.90
37886;DHT22;23726;52.520;13.434;2022-12-18T10:19:52;20.30;45.90
37886;DHT22;23726;52.520;13.434;2022-12-18T10:27:28;20.30;45.90
37886;DHT22;23726;52.520;13.434;2022-12-18T10:29:55;20.30;45.90
37886;DHT22;23726;52.520;13.434;2022-12-18T10:32:24;20.30;45.80
37886;DHT22;23726;52.520;13.434;2022-12-18T10:34:53;20.30;45.80
37886;DHT22;23726;52.520;13.434;2022-12-18T10:37:21;20.30;45.80
37886;DHT22;23726;52.520;13.434;2022-12-18T10:40:13;20.30;45.70
37886;DHT22;23726;52.520;13.434;2022-12-18T10:42:39;20.30;45.70
37886;DHT22;23726;52.520;13.434;2022-12-18T10:45:12;20.30;45.70
37886;DHT22;23726;52.520;13.434;2022-12-18T10:47:46;20.30;45.80
37886;DHT22;23726;52.520;13.434;2022-12-18T10:52:58;20.30;45.80
37886;DHT22;23726;52.520;13.434;2022-12-18T10:55:28;20.30;45.80
37886;DHT22;23726;52.520;13.434;2022-12-18T11:01:02;20.30;45.70
37886;DHT22;23726;52.520;13.434;2022-12-18T11:03:32;20.30;45.80
37886;DHT22;23726;52.520;13.434;2022-12-18T11:08:29;20.30;45.80
37886;DHT22;23726;52.520;13.434;2022-12-18T11:10:55;20.30;45.70
37886;DHT22;23726;52.520;13.434;2022-12-18T11:13:23;20.30;45.70
37886;DHT22;23726;52.520;13.434;2022-12-18T11:15:50;20.30;45.90
37886;DHT22;23726;52.520;13.434;2022-12-18T11:18:28;20.30;45.80
37886;DHT22;23726;52.520;13.434;2022-12-18T11:21:15;20.30;45.80
37886;DHT22;23726;52.520;13.434;2022-12-18T11:23:51;20.30;45.80
37886;DHT22;23726;52.520;13.434;2022-12-18T11:26:18;20.30;45.80
37886;DHT22;23726;52.520;13.434;2022-12-18T11:28:50;20.30;45.70
37886;DHT22;23726;52.520;13.434;2022-12-18T11:31:29;20.30;45.60
37886;DHT22;23726;52.520;13.434;2022-12-18T11:36:30;20.30;45.70
37886;DHT22;23726;52.520;13.434;2022-12-18T11:39:01;20.40;45.80
37886;DHT22;23726;52.520;13.434;2022-12-18T11:41:39;20.30;45.70
37886;DHT22;23726;52.520;13.434;2022-12-18T11:44:30;20.30;45.80
37886;DHT22;23726;52.520;13.434;2022-12-18T11:47:28;20.30;46.10
37886;DHT22;23726;52.520;13.434;2022-12-18T11:50:00;20.30;46.10
37886;DHT22;23726;52.520;13.434;2022-12-18T11:52:41;20.30;46.20
37886;DHT22;23726;52.520;13.434;2022-12-18T11:56:02;20.30;46.20
37886;DHT22;23726;52.520;13.434;2022-12-18T11:58:29;20.30;46.20
37886;DHT22;23726;52.520;13.434;2022-12-18T12:04:37;20.30;46.20
37886;DHT22;23726;52.520;13.434;2022-12-18T12:09:47;20.30;46.20
37886;DHT22;23726;52.520;13.434;2022-12-18T12:23:37;20.30;46.10
37886;DHT22;23726;52.520;13.434;2022-12-18T12:26:10;20.30;46.10
37886;DHT22;23726;52.520;13.434;2022-12-18T12:28:50;20.30;46.10
37886;DHT22;23726;52.520;13.434;2022-12-18T12:39:42;20.30;46.10
37886;DHT22;23726;52.520;13.434;2022-12-18T12:45:36;20.30;46.00
37886;DHT22;23726;52.520;13.434;2022-12-18T12:48:06;20.30;46.00
37886;DHT22;23726;52.520;13.434;2022-12-18T12:50:37;20.30;46.00
37886;DHT22;23726;52.520;13.434;2022-12-18T12:53:08;20.40;46.00
37886;DHT22;23726;52.520;13.434;2022-12-18T12:55:39;20.40;46.00
37886;DHT22;23726;52.520;13.434;2022-12-18T12:58:26;20.40;46.00
37886;DHT22;23726;52.520;13.434;2022-12-18T13:03:43;20.40;46.10
37886;DHT22;23726;52.520;13.434;2022-12-18T13:06:35;20.40;46.00
37886;DHT22;23726;52.520;13.434;2022-12-18T13:09:03;20.40;46.00
37886;DHT22;23726;52.520;13.434;2022-12-18T13:11:47;20.40;46.00
37886;DHT22;23726;52.520;13.434;2022-12-18T13:14:38;20.40;46.00
37886;DHT22;23726;52.520;13.434;2022-12-18T13:25:01;20.40;46.00
37886;DHT22;23726;52.520;13.434;2022-12-18T13:41:22;20.40;46.00
37886;DHT22;23726;52.520;13.434;2022-12-18T13:43:53;20.40;46.00
37886;DHT22;23726;52.520;13.434;2022-12-18T13:49:23;20.40;46.20
37886;DHT22;23726;52.520;13.434;2022-12-18T13:51:52;20.40;46.30
37886;DHT22;23726;52.520;13.434;2022-12-18T13:54:34;20.30;46.50
37886;DHT22;23726;52.520;13.434;2022-12-18T13:57:02;20.30;46.60
37886;DHT22;23726;52.520;13.434;2022-12-18T13:59:36;20.40;46.70
37886;DHT22;23726;52.520;13.434;2022-12-18T14:02:22;20.40;46.70
37886;DHT22;23726;52.520;13.434;2022-12-18T14:04:48;20.40;46.70
37886;DHT22;23726;52.520;13.434;2022-12-18T14:07:23;20.40;46.80
37886;DHT22;23726;52.520;13.434;2022-12-18T14:09:52;20.40;46.80
37886;DHT22;23726;52.520;13.434;2022-12-18T14:12:24;20.40;46.90
37886;DHT22;23726;52.520;13.434;2022-12-18T14:15:41;20.40;46.90
37886;DHT22;23726;52.520;13.434;2022-12-18T14:18:23;20.40;46.80
37886;DHT22;23726;52.520;13.434;2022-12-18T14:20:52;20.40;47.50
37886;DHT22;23726;52.520;13.434;2022-12-18T14:25:57;20.50;47.10
37886;DHT22;23726;52.520;13.434;2022-12-18T14:28:24;20.50;47.00
37886;DHT22;23726;52.520;13.434;2022-12-18T14:30:51;20.50;47.00
37886;DHT22;23726;52.520;13.434;2022-12-18T14:33:25;20.50;47.00
37886;DHT22;23726;52.520;13.434;2022-12-18T14:35:58;20.50;47.00
37886;DHT22;23726;52.520;13.434;2022-12-18T14:38:39;20.50;47.00
37886;DHT22;23726;52.520;13.434;2022-12-18T14:41:16;20.50;47.00
37886;DHT22;23726;52.520;13.434;2022-12-18T14:43:44;20.50;47.00
37886;DHT22;23726;52.520;13.434;2022-12-18T14:49:02;20.50;47.00
37886;DHT22;23726;52.520;13.434;2022-12-18T14:51:30;20.50;47.00
37886;DHT22;23726;52.520;13.434;2022-12-18T14:56:36;20.50;46.90
37886;DHT22;23726;52.520;13.434;2022-12-18T15:01:56;20.50;46.80
37886;DHT22;23726;52.520;13.434;2022-12-18T15:04:35;20.50;46.70
37886;DHT22;23726;52.520;13.434;2022-12-18T15:10:00;20.50;46.70
37886;DHT22;23726;52.520;13.434;2022-12-18T15:12:36;20.50;46.80
37886;DHT22;23726;52.520;13.434;2022-12-18T15:15:03;20.50;46.80
37886;DHT22;23726;52.520;13.434;2022-12-18T15:17:29;20.50;46.80
37886;DHT22;23726;52.520;13.434;2022-12-18T15:20:03;20.50;46.80
37886;DHT22;23726;52.520;13.434;2022-12-18T15:22:35;20.50;46.80
37886;DHT22;23726;52.520;13.434;2022-12-18T15:25:04;20.50;46.70
37886;DHT22;23726;52.520;13.434;2022-12-18T15:27:47;20.50;46.70
37886;DHT22;23726;52.520;13.434;2022-12-18T15:30:19;20.50;46.70
37886;DHT22;23726;52.520;13.434;2022-12-18T15:32:46;20.50;46.70
37886;DHT22;23726;52.520;13.434;2022-12-18T15:35:23;20.60;46.80
37886;DHT22;23726;52.520;13.434;2022-12-18T15:37:50;20.60;46.70
37886;DHT22;23726;52.520;13.434;2022-12-18T15:40:21;20.50;46.70
37886;DHT22;23726;52.520;13.434;2022-12-18T15:42:51;20.50;46.70
37886;DHT22;23726;52.520;13.434;2022-12-18T15:45:35;20.60;46.70
37886;DHT22;23726;52.520;13.434;2022-12-18T15:48:32;20.60;46.80
37886;DHT22;23726;52.520;13.434;2022-12-18T15:51:01;20.50;46.60
37886;DHT22;23726;52.520;13.434;2022-12-18T15:53:32;20.50;46.60
37886;DHT22;23726;52.520;13.434;2022-12-18T15:55:58;20.60;46.70
37886;DHT22;23726;52.520;13.434;2022-12-18T15:58:44;20.50;46.60
37886;DHT22;23726;52.520;13.434;2022-12-18T16:01:11;20.50;46.70
37886;DHT22;23726;52.520;13.434;2022-12-18T16:03:37;20.50;46.60
37886;DHT22;23726;52.520;13.434;2022-12-18T16:06:03;20.50;46.60
37886;DHT22;23726;52.520;13.434;2022-12-18T16:08:29;20.50;46.60
37886;DHT22;23726;52.520;13.434;2022-12-18T16:10:56;20.50;46.60
37886;DHT22;23726;52.520;13.434;2022-12-18T16:13:23;20.50;46.60
37886;DHT22;23726;52.520;13.434;2022-12-18T16:15:49;20.50;46.60
37886;DHT22;23726;52.520;13.434;2022-12-18T16:18:15;20.60;46.60
37886;DHT22;23726;52.520;13.434;2022-12-18T16:20:43;20.60;46.60
37886;DHT22;23726;52.520;13.434;2022-12-18T16:23:09;20.60;46.60
37886;DHT22;23726;52.520;13.434;2022-12-18T16:25:34;20.60;46.60
37886;DHT22;23726;52.520;13.434;2022-12-18T16:28:00;20.60;46.50
37886;DHT22;23726;52.520;13.434;2022-12-18T16:30:28;20.60;46.60
37886;DHT22;23726;52.520;13.434;2022-12-18T16:32:55;20.60;46.50
37886;DHT22;23726;52.520;13.434;2022-12-18T16:35:21;20.60;46.50
37886;DHT22;23726;52.520;13.434;2022-12-18T16:37:47;20.60;46.50
37886;DHT22;23726;52.520;13.434;2022-12-18T16:40:14;20.60;46.50
37886;DHT22;23726;52.520;13.434;2022-12-18T16:42:44;20.60;46.50
37886;DHT22;23726;52.520;13.434;2022-12-18T16:45:17;20.60;46.50
37886;DHT22;23726;52.520;13.434;2022-12-18T16:47:42;20.60;46.50
37886;DHT22;23726;52.520;13.434;2022-12-18T16:50:09;20.60;46.50
37886;DHT22;23726;52.520;13.434;2022-12-18T16:52:35;20.60;46.50
37886;DHT22;23726;52.520;13.434;2022-12-18T16:55:01;20.50;46.50
37886;DHT22;23726;52.520;13.434;2022-12-18T16:57:27;20.60;46.50
37886;DHT22;23726;52.520;13.434;2022-12-18T16:59:54;20.60;46.50
37886;DHT22;23726;52.520;13.434;2022-12-18T17:02:25;20.60;46.50
37886;DHT22;23726;52.520;13.434;2022-12-18T17:04:55;20.60;46.40
37886;DHT22;23726;52.520;13.434;2022-12-18T17:07:21;20.60;46.40
37886;DHT22;23726;52.520;13.434;2022-12-18T17:09:47;20.50;46.50
37886;DHT22;23726;52.520;13.434;2022-12-18T17:12:14;20.50;46.60
37886;DHT22;23726;52.520;13.434;2022-12-18T17:14:42;20.50;46.60
37886;DHT22;23726;52.520;13.434;2022-12-18T17:17:08;20.50;46.60
37886;DHT22;23726;52.520;13.434;2022-12-18T17:19:33;20.50;46.60
37886;DHT22;23726;52.520;13.434;2022-12-18T17:21:59;20.50;46.50
37886;DHT22;23726;52.520;13.434;2022-12-18T17:24:25;20.50;46.60
37886;DHT22;23726;52.520;13.434;2022-12-18T17:26:51;20.50;46.60
37886;DHT22;23726;52.520;13.434;2022-12-18T17:29:18;20.50;46.50
37886;DHT22;23726;52.520;13.434;2022-12-18T17:31:47;20.50;46.50